sensor_id;sensor_type;location;lat;lon;timestamp;temperature;humidity
35970;DHT22;22448;51.298;6.430;2024-02-04T00:01:59;9.30;99.90
35970;DHT22;22448;51.298;6.430;2024-02-04T00:04:26;9.30;99.90
35970;DHT22;22448;51.298;6.430;2024-02-04T00:06:54;9.40;99.90
35970;DHT22;22448;51.298;6.430;2024-02-04T00:09:21;9.40;99.90
35970;DHT22;22448;51.298;6.430;2024-02-04T00:11:50;9.30;99.90
35970;DHT22;22448;51.298;6.430;2024-02-04T00:14:17;9.30;99.90
35970;DHT22;22448;51.298;6.430;2024-02-04T00:16:44;9.40;99.90
35970;DHT22;22448;51.298;6.430;2024-02-04T00:19:12;9.30;99.90
35970;DHT22;22448;51.298;6.430;2024-02-04T00:21:39;9.30;99.90
35970;DHT22;22448;51.298;6.430;2024-02-04T00:24:07;9.40;99.90
35970;DHT22;22448;51.298;6.430;2024-02-04T00:26:34;9.30;99.90
35970;DHT22;22448;51.298;6.430;2024-02-04T00:29:01;9.30;99.90
35970;DHT22;22448;51.298;6.430;2024-02-04T00:31:28;9.30;99.90
35970;DHT22;22448;51.298;6.430;2024-02-04T00:33:55;9.40;99.90
35970;DHT22;22448;51.298;6.430;2024-02-04T00:36:23;9.40;99.90
35970;DHT22;22448;51.298;6.430;2024-02-04T00:38:50;9.40;99.90
35970;DHT22;22448;51.298;6.430;2024-02-04T00:41:17;9.40;99.90
35970;DHT22;22448;51.298;6.430;2024-02-04T00:43:44;9.40;99.90
35970;DHT22;22448;51.298;6.430;2024-02-04T00:46:11;9.40;99.90
35970;DHT22;22448;51.298;6.430;2024-02-04T00:48:39;9.40;99.90
35970;DHT22;22448;51.298;6.430;2024-02-04T00:51:07;9.40;99.90
35970;DHT22;22448;51.298;6.430;2024-02-04T00:53:35;9.40;99.90
35970;DHT22;22448;51.298;6.430;2024-02-04T00:56:05;9.40;99.90
35970;DHT22;22448;51.298;6.430;2024-02-04T00:58:32;9.40;99.90
35970;DHT22;22448;51.298;6.430;2024-02-04T01:01:00;9.40;99.90
35970;DHT22;22448;51.298;6.430;2024-02-04T01:03:28;9.40;99.90
35970;DHT22;22448;51.298;6.430;2024-02-04T01:05:56;9.40;99.90
35970;DHT22;22448;51.298;6.430;2024-02-04T01:08:23;9.40;99.90
35970;DHT22;22448;51.298;6.430;2024-02-04T01:10:50;9.40;99.90
35970;DHT22;22448;51.298;6.430;2024-02-04T01:13:20;9.40;99.90
35970;DHT22;22448;51.298;6.430;2024-02-04T01:15:47;9.40;99.90
35970;DHT22;22448;51.298;6.430;2024-02-04T01:18:14;9.40;99.90
35970;DHT22;22448;51.298;6.430;2024-02-04T01:20:41;9.40;99.90
35970;DHT22;22448;51.298;6.430;2024-02-04T01:23:08;9.40;99.90
35970;DHT22;22448;51.298;6.430;2024-02-04T01:25:36;9.50;99.90
35970;DHT22;22448;51.298;6.430;2024-02-04T01:28:08;9.50;99.90
35970;DHT22;22448;51.298;6.430;2024-02-04T01:30:35;9.40;99.90
35970;DHT22;22448;51.298;6.430;2024-02-04T01:33:04;9.40;99.90
35970;DHT22;22448;51.298;6.430;2024-02-04T01:35:32;9.50;99.90
35970;DHT22;22448;51.298;6.430;2024-02-04T01:37:59;9.50;99.90
35970;DHT22;22448;51.298;6.430;2024-02-04T01:40:26;9.40;99.90
35970;DHT22;22448;51.298;6.430;2024-02-04T01:42:53;9.40;99.90
35970;DHT22;22448;51.298;6.430;2024-02-04T01:45:20;9.50;99.90
35970;DHT22;22448;51.298;6.430;2024-02-04T01:47:48;9.50;99.90
35970;DHT22;22448;51.298;6.430;2024-02-04T01:50:15;9.50;99.90
35970;DHT22;22448;51.298;6.430;2024-02-04T01:52:44;9.50;99.90
35970;DHT22;22448;51.298;6.430;2024-02-04T01:55:11;9.50;99.90
35970;DHT22;22448;51.298;6.430;2024-02-04T01:57:39;9.50;99.90
35970;DHT22;22448;51.298;6.430;2024-02-04T02:00:08;9.50;99.90
35970;DHT22;22448;51.298;6.430;2024-02-04T02:02:40;9.50;99.90
35970;DHT22;22448;51.298;6.430;2024-02-04T02:05:08;9.50;99.90
35970;DHT22;22448;51.298;6.430;2024-02-04T02:07:36;9.50;99.90
35970;DHT22;22448;51.298;6.430;2024-02-04T02:10:04;9.50;99.90
35970;DHT22;22448;51.298;6.430;2024-02-04T02:12:55;9.50;99.90
35970;DHT22;22448;51.298;6.430;2024-02-04T02:15:29;9.50;99.90
35970;DHT22;22448;51.298;6.430;2024-02-04T02:18:37;9.50;99.90
35970;DHT22;22448;51.298;6.430;2024-02-04T02:21:16;9.50;99.90
35970;DHT22;22448;51.298;6.430;2024-02-04T02:24:03;9.50;99.90
35970;DHT22;22448;51.298;6.430;2024-02-04T02:26:32;9.60;99.90
35970;DHT22;22448;51.298;6.430;2024-02-04T02:29:00;9.50;99.90
35970;DHT22;22448;51.298;6.430;2024-02-04T02:31:27;9.50;99.90
35970;DHT22;22448;51.298;6.430;2024-02-04T02:34:12;9.50;99.90
35970;DHT22;22448;51.298;6.430;2024-02-04T02:42:40;9.60;99.90
35970;DHT22;22448;51.298;6.430;2024-02-04T02:45:09;9.60;99.90
35970;DHT22;22448;51.298;6.430;2024-02-04T02:47:39;9.60;99.90
35970;DHT22;22448;51.298;6.430;2024-02-04T02:50:08;9.60;99.90
35970;DHT22;22448;51.298;6.430;2024-02-04T02:52:35;9.60;99.90
35970;DHT22;22448;51.298;6.430;2024-02-04T02:55:03;9.60;99.90
35970;DHT22;22448;51.298;6.430;2024-02-04T02:57:30;9.50;99.90
35970;DHT22;22448;51.298;6.430;2024-02-04T02:59:57;9.60;99.90
35970;DHT22;22448;51.298;6.430;2024-02-04T03:02:24;9.60;99.90
35970;DHT22;22448;51.298;6.430;2024-02-04T03:04:51;9.60;99.90
35970;DHT22;22448;51.298;6.430;2024-02-04T03:07:18;9.60;99.90
35970;DHT22;22448;51.298;6.430;2024-02-04T03:09:46;9.60;99.90
35970;DHT22;22448;51.298;6.430;2024-02-04T03:12:13;9.60;99.90
35970;DHT22;22448;51.298;6.430;2024-02-04T03:14:40;9.60;99.90
35970;DHT22;22448;51.298;6.430;2024-02-04T03:17:07;9.60;99.90
35970;DHT22;22448;51.298;6.430;2024-02-04T03:19:34;9.60;99.90
35970;DHT22;22448;51.298;6.430;2024-02-04T03:22:01;9.60;99.90
35970;DHT22;22448;51.298;6.430;2024-02-04T03:24:29;9.60;99.90
35970;DHT22;22448;51.298;6.430;2024-02-04T03:26:56;9.60;99.90
35970;DHT22;22448;51.298;6.430;2024-02-04T03:29:23;9.60;99.90
35970;DHT22;22448;51.298;6.430;2024-02-04T03:31:51;9.60;99.90
35970;DHT22;22448;51.298;6.430;2024-02-04T03:34:18;9.60;99.90
35970;DHT22;22448;51.298;6.430;2024-02-04T03:36:45;9.60;99.90
35970;DHT22;22448;51.298;6.430;2024-02-04T03:39:12;9.60;99.90
35970;DHT22;22448;51.298;6.430;2024-02-04T03:41:39;9.60;99.90
35970;DHT22;22448;51.298;6.430;2024-02-04T03:44:06;9.60;99.90
35970;DHT22;22448;51.298;6.430;2024-02-04T03:46:34;9.60;99.90
35970;DHT22;22448;51.298;6.430;2024-02-04T03:49:01;9.60;99.90
35970;DHT22;22448;51.298;6.430;2024-02-04T03:51:28;9.60;99.90
35970;DHT22;22448;51.298;6.430;2024-02-04T03:53:55;9.60;99.90
35970;DHT22;22448;51.298;6.430;2024-02-04T03:56:24;9.70;99.90
35970;DHT22;22448;51.298;6.430;2024-02-04T03:58:51;9.60;99.90
35970;DHT22;22448;51.298;6.430;2024-02-04T04:01:18;9.60;99.90
35970;DHT22;22448;51.298;6.430;2024-02-04T04:03:45;9.60;99.90
35970;DHT22;22448;51.298;6.430;2024-02-04T04:06:12;9.60;99.90
35970;DHT22;22448;51.298;6.430;2024-02-04T04:08:39;9.60;99.90
35970;DHT22;22448;51.298;6.430;2024-02-04T04:11:10;9.60;99.90
35970;DHT22;22448;51.298;6.430;2024-02-04T04:13:38;9.60;99.90
35970;DHT22;22448;51.298;6.430;2024-02-04T04:16:05;9.60;99.90
35970;DHT22;22448;51.298;6.430;2024-02-04T04:18:33;9.60;99.90
35970;DHT22;22448;51.298;6.430;2024-02-04T04:21:01;9.60;99.90
35970;DHT22;22448;51.298;6.430;2024-02-04T04:23:28;9.60;99.90
35970;DHT22;22448;51.298;6.430;2024-02-04T04:25:55;9.60;99.90
35970;DHT22;22448;51.298;6.430;2024-02-04T04:28:22;9.50;99.90
35970;DHT22;22448;51.298;6.430;2024-02-04T04:30:49;9.50;99.90
35970;DHT22;22448;51.298;6.430;2024-02-04T04:33:16;9.50;99.90
35970;DHT22;22448;51.298;6.430;2024-02-04T04:35:43;9.50;99.90
35970;DHT22;22448;51.298;6.430;2024-02-04T04:38:10;9.50;99.90
35970;DHT22;22448;51.298;6.430;2024-02-04T04:40:37;9.50;99.90
35970;DHT22;22448;51.298;6.430;2024-02-04T04:43:05;9.50;99.90
35970;DHT22;22448;51.298;6.430;2024-02-04T04:45:32;9.50;99.90
35970;DHT22;22448;51.298;6.430;2024-02-04T04:47:59;9.60;99.90
35970;DHT22;22448;51.298;6.430;2024-02-04T04:50:27;9.60;99.90
35970;DHT22;22448;51.298;6.430;2024-02-04T04:52:54;9.60;99.90
35970;DHT22;22448;51.298;6.430;2024-02-04T04:55:21;9.60;99.90
35970;DHT22;22448;51.298;6.430;2024-02-04T04:57:48;9.60;99.90
35970;DHT22;22448;51.298;6.430;2024-02-04T05:00:16;9.60;99.90
35970;DHT22;22448;51.298;6.430;2024-02-04T05:02:43;9.60;99.90
35970;DHT22;22448;51.298;6.430;2024-02-04T05:05:11;9.60;99.90
35970;DHT22;22448;51.298;6.430;2024-02-04T05:07:39;9.60;99.90
35970;DHT22;22448;51.298;6.430;2024-02-04T05:10:07;9.60;99.90
35970;DHT22;22448;51.298;6.430;2024-02-04T05:12:35;9.60;99.90
35970;DHT22;22448;51.298;6.430;2024-02-04T05:15:03;9.60;99.90
35970;DHT22;22448;51.298;6.430;2024-02-04T05:17:30;9.60;99.90
35970;DHT22;22448;51.298;6.430;2024-02-04T05:19:59;9.60;99.90
35970;DHT22;22448;51.298;6.430;2024-02-04T05:22:26;9.60;99.90
35970;DHT22;22448;51.298;6.430;2024-02-04T05:24:53;9.60;99.90
35970;DHT22;22448;51.298;6.430;2024-02-04T05:27:20;9.60;99.90
35970;DHT22;22448;51.298;6.430;2024-02-04T05:29:47;9.60;99.90
35970;DHT22;22448;51.298;6.430;2024-02-04T05:32:14;9.60;99.90
35970;DHT22;22448;51.298;6.430;2024-02-04T05:34:41;9.60;99.90
35970;DHT22;22448;51.298;6.430;2024-02-04T05:37:08;9.60;99.90
35970;DHT22;22448;51.298;6.430;2024-02-04T05:39:36;9.60;99.90
35970;DHT22;22448;51.298;6.430;2024-02-04T05:42:03;9.60;99.90
35970;DHT22;22448;51.298;6.430;2024-02-04T05:44:30;9.60;99.90
35970;DHT22;22448;51.298;6.430;2024-02-04T05:46:57;9.60;99.90
35970;DHT22;22448;51.298;6.430;2024-02-04T05:49:24;9.60;99.90
35970;DHT22;22448;51.298;6.430;2024-02-04T05:51:52;9.60;99.90
35970;DHT22;22448;51.298;6.430;2024-02-04T05:54:19;9.60;99.90
35970;DHT22;22448;51.298;6.430;2024-02-04T05:56:46;9.60;99.90
35970;DHT22;22448;51.298;6.430;2024-02-04T05:59:13;9.60;99.90
35970;DHT22;22448;51.298;6.430;2024-02-04T06:01:40;9.60;99.90
35970;DHT22;22448;51.298;6.430;2024-02-04T06:04:07;9.60;99.90
35970;DHT22;22448;51.298;6.430;2024-02-04T06:06:35;9.70;99.90
35970;DHT22;22448;51.298;6.430;2024-02-04T06:09:02;9.60;99.90
35970;DHT22;22448;51.298;6.430;2024-02-04T06:11:29;9.60;99.90
35970;DHT22;22448;51.298;6.430;2024-02-04T06:13:56;9.60;99.90
35970;DHT22;22448;51.298;6.430;2024-02-04T06:16:23;9.60;99.90
35970;DHT22;22448;51.298;6.430;2024-02-04T06:18:50;9.60;99.90
35970;DHT22;22448;51.298;6.430;2024-02-04T06:21:18;9.70;99.90
35970;DHT22;22448;51.298;6.430;2024-02-04T06:23:45;9.60;99.90
35970;DHT22;22448;51.298;6.430;2024-02-04T06:26:12;9.70;99.90
35970;DHT22;22448;51.298;6.430;2024-02-04T06:28:39;9.70;99.90
35970;DHT22;22448;51.298;6.430;2024-02-04T06:31:09;9.70;99.90
35970;DHT22;22448;51.298;6.430;2024-02-04T06:33:36;9.70;99.90
35970;DHT22;22448;51.298;6.430;2024-02-04T06:36:08;9.70;99.90
35970;DHT22;22448;51.298;6.430;2024-02-04T06:38:36;9.70;99.90
35970;DHT22;22448;51.298;6.430;2024-02-04T06:41:03;9.60;99.90
35970;DHT22;22448;51.298;6.430;2024-02-04T06:43:31;9.70;99.90
35970;DHT22;22448;51.298;6.430;2024-02-04T06:46:02;9.70;99.90
35970;DHT22;22448;51.298;6.430;2024-02-04T06:48:30;9.70;99.90
35970;DHT22;22448;51.298;6.430;2024-02-04T06:50:57;9.70;99.90
35970;DHT22;22448;51.298;6.430;2024-02-04T06:53:25;9.70;99.90
35970;DHT22;22448;51.298;6.430;2024-02-04T06:55:52;9.60;99.90
35970;DHT22;22448;51.298;6.430;2024-02-04T06:58:19;9.60;99.90
35970;DHT22;22448;51.298;6.430;2024-02-04T07:00:46;9.60;99.90
35970;DHT22;22448;51.298;6.430;2024-02-04T07:03:14;9.60;99.90
35970;DHT22;22448;51.298;6.430;2024-02-04T07:05:41;9.60;99.90
35970;DHT22;22448;51.298;6.430;2024-02-04T07:08:09;9.70;99.90
35970;DHT22;22448;51.298;6.430;2024-02-04T07:10:36;9.60;99.90
35970;DHT22;22448;51.298;6.430;2024-02-04T07:13:03;9.70;99.90
35970;DHT22;22448;51.298;6.430;2024-02-04T07:15:30;9.70;99.90
35970;DHT22;22448;51.298;6.430;2024-02-04T07:17:58;9.60;99.90
35970;DHT22;22448;51.298;6.430;2024-02-04T07:20:25;9.70;99.90
35970;DHT22;22448;51.298;6.430;2024-02-04T07:22:52;9.60;99.90
35970;DHT22;22448;51.298;6.430;2024-02-04T07:25:19;9.60;99.90
35970;DHT22;22448;51.298;6.430;2024-02-04T07:27:47;9.70;99.90
35970;DHT22;22448;51.298;6.430;2024-02-04T07:30:14;9.70;99.90
35970;DHT22;22448;51.298;6.430;2024-02-04T07:32:41;9.70;99.90
35970;DHT22;22448;51.298;6.430;2024-02-04T07:35:09;9.60;99.90
35970;DHT22;22448;51.298;6.430;2024-02-04T07:37:36;9.60;99.90
35970;DHT22;22448;51.298;6.430;2024-02-04T07:40:04;9.60;99.90
35970;DHT22;22448;51.298;6.430;2024-02-04T07:42:33;9.70;99.90
35970;DHT22;22448;51.298;6.430;2024-02-04T07:45:00;9.70;99.90
35970;DHT22;22448;51.298;6.430;2024-02-04T07:47:28;9.70;99.90
35970;DHT22;22448;51.298;6.430;2024-02-04T07:49:55;9.70;99.90
35970;DHT22;22448;51.298;6.430;2024-02-04T07:52:23;9.70;99.90
35970;DHT22;22448;51.298;6.430;2024-02-04T07:54:50;9.70;99.90
35970;DHT22;22448;51.298;6.430;2024-02-04T07:57:17;9.70;99.90
35970;DHT22;22448;51.298;6.430;2024-02-04T07:59:44;9.70;99.90
35970;DHT22;22448;51.298;6.430;2024-02-04T08:02:11;9.70;99.90
35970;DHT22;22448;51.298;6.430;2024-02-04T08:04:40;9.70;99.90
35970;DHT22;22448;51.298;6.430;2024-02-04T08:07:08;9.70;99.90
35970;DHT22;22448;51.298;6.430;2024-02-04T08:09:35;9.70;99.90
35970;DHT22;22448;51.298;6.430;2024-02-04T08:12:03;9.80;99.90
35970;DHT22;22448;51.298;6.430;2024-02-04T08:14:30;9.80;99.90
35970;DHT22;22448;51.298;6.430;2024-02-04T08:16:57;9.80;99.90
35970;DHT22;22448;51.298;6.430;2024-02-04T08:19:24;9.80;99.90
35970;DHT22;22448;51.298;6.430;2024-02-04T08:21:51;9.70;99.90
35970;DHT22;22448;51.298;6.430;2024-02-04T08:24:20;9.80;99.90
35970;DHT22;22448;51.298;6.430;2024-02-04T08:26:47;9.80;99.90
35970;DHT22;22448;51.298;6.430;2024-02-04T08:29:13;9.80;99.90
35970;DHT22;22448;51.298;6.430;2024-02-04T08:31:41;9.80;99.90
35970;DHT22;22448;51.298;6.430;2024-02-04T08:34:08;9.90;99.90
35970;DHT22;22448;51.298;6.430;2024-02-04T08:36:36;9.90;99.90
35970;DHT22;22448;51.298;6.430;2024-02-04T08:39:03;9.90;99.90
35970;DHT22;22448;51.298;6.430;2024-02-04T08:41:31;9.90;99.90
35970;DHT22;22448;51.298;6.430;2024-02-04T08:43:58;10.00;99.90
35970;DHT22;22448;51.298;6.430;2024-02-04T08:46:30;10.00;99.90
35970;DHT22;22448;51.298;6.430;2024-02-04T08:48:56;10.10;99.90
35970;DHT22;22448;51.298;6.430;2024-02-04T08:51:23;10.10;99.90
35970;DHT22;22448;51.298;6.430;2024-02-04T08:53:53;10.10;99.90
35970;DHT22;22448;51.298;6.430;2024-02-04T08:56:20;10.10;99.90
35970;DHT22;22448;51.298;6.430;2024-02-04T08:58:47;10.20;99.90
35970;DHT22;22448;51.298;6.430;2024-02-04T09:01:14;10.20;99.90
35970;DHT22;22448;51.298;6.430;2024-02-04T09:03:41;10.20;99.90
35970;DHT22;22448;51.298;6.430;2024-02-04T09:06:09;10.30;99.90
35970;DHT22;22448;51.298;6.430;2024-02-04T09:08:36;10.30;99.90
35970;DHT22;22448;51.298;6.430;2024-02-04T09:11:03;10.30;99.90
35970;DHT22;22448;51.298;6.430;2024-02-04T09:13:30;10.30;99.90
35970;DHT22;22448;51.298;6.430;2024-02-04T09:15:57;10.30;99.90
35970;DHT22;22448;51.298;6.430;2024-02-04T09:18:24;10.30;99.90
35970;DHT22;22448;51.298;6.430;2024-02-04T09:20:51;10.30;99.90
35970;DHT22;22448;51.298;6.430;2024-02-04T09:23:19;10.40;99.90
35970;DHT22;22448;51.298;6.430;2024-02-04T09:25:46;10.40;99.90
35970;DHT22;22448;51.298;6.430;2024-02-04T09:28:13;10.40;99.90
35970;DHT22;22448;51.298;6.430;2024-02-04T09:30:41;10.40;99.90
35970;DHT22;22448;51.298;6.430;2024-02-04T09:33:08;10.40;99.90
35970;DHT22;22448;51.298;6.430;2024-02-04T09:35:35;10.40;99.90
35970;DHT22;22448;51.298;6.430;2024-02-04T09:38:03;10.30;99.90
35970;DHT22;22448;51.298;6.430;2024-02-04T09:40:31;10.30;99.90
35970;DHT22;22448;51.298;6.430;2024-02-04T09:42:58;10.30;99.90
35970;DHT22;22448;51.298;6.430;2024-02-04T09:45:26;10.30;99.90
35970;DHT22;22448;51.298;6.430;2024-02-04T09:47:53;10.30;99.90
35970;DHT22;22448;51.298;6.430;2024-02-04T09:50:21;10.40;99.90
35970;DHT22;22448;51.298;6.430;2024-02-04T09:52:50;10.30;99.90
35970;DHT22;22448;51.298;6.430;2024-02-04T09:55:20;10.30;99.90
35970;DHT22;22448;51.298;6.430;2024-02-04T09:57:48;10.30;99.90
35970;DHT22;22448;51.298;6.430;2024-02-04T10:00:18;10.30;99.90
35970;DHT22;22448;51.298;6.430;2024-02-04T10:02:48;10.30;99.90
35970;DHT22;22448;51.298;6.430;2024-02-04T10:05:15;10.30;99.90
35970;DHT22;22448;51.298;6.430;2024-02-04T10:07:43;10.30;99.90
35970;DHT22;22448;51.298;6.430;2024-02-04T10:10:11;10.40;99.90
35970;DHT22;22448;51.298;6.430;2024-02-04T10:12:39;10.40;99.90
35970;DHT22;22448;51.298;6.430;2024-02-04T10:15:08;10.50;99.90
35970;DHT22;22448;51.298;6.430;2024-02-04T10:17:35;10.60;99.90
35970;DHT22;22448;51.298;6.430;2024-02-04T10:20:03;10.60;99.90
35970;DHT22;22448;51.298;6.430;2024-02-04T10:22:30;10.60;99.90
35970;DHT22;22448;51.298;6.430;2024-02-04T10:25:06;10.50;99.90
35970;DHT22;22448;51.298;6.430;2024-02-04T10:27:35;10.50;99.90
35970;DHT22;22448;51.298;6.430;2024-02-04T10:30:04;10.40;99.90
35970;DHT22;22448;51.298;6.430;2024-02-04T10:32:31;10.40;99.90
35970;DHT22;22448;51.298;6.430;2024-02-04T10:34:58;10.40;99.90
35970;DHT22;22448;51.298;6.430;2024-02-04T10:37:26;10.40;99.90
35970;DHT22;22448;51.298;6.430;2024-02-04T10:39:56;10.40;99.90
35970;DHT22;22448;51.298;6.430;2024-02-04T10:42:27;10.40;99.90
35970;DHT22;22448;51.298;6.430;2024-02-04T10:44:55;10.40;99.90
35970;DHT22;22448;51.298;6.430;2024-02-04T10:47:28;10.40;99.90
35970;DHT22;22448;51.298;6.430;2024-02-04T10:49:58;10.50;99.90
35970;DHT22;22448;51.298;6.430;2024-02-04T10:52:27;10.40;99.90
35970;DHT22;22448;51.298;6.430;2024-02-04T10:54:55;10.40;99.90
35970;DHT22;22448;51.298;6.430;2024-02-04T10:57:23;10.50;99.90
35970;DHT22;22448;51.298;6.430;2024-02-04T10:59:51;10.50;99.90
35970;DHT22;22448;51.298;6.430;2024-02-04T11:02:19;10.50;99.90
35970;DHT22;22448;51.298;6.430;2024-02-04T11:04:49;10.50;99.90
35970;DHT22;22448;51.298;6.430;2024-02-04T11:07:20;10.50;99.90
35970;DHT22;22448;51.298;6.430;2024-02-04T11:09:48;10.50;99.90
35970;DHT22;22448;51.298;6.430;2024-02-04T11:12:18;10.50;99.90
35970;DHT22;22448;51.298;6.430;2024-02-04T11:14:50;10.50;99.90
35970;DHT22;22448;51.298;6.430;2024-02-04T11:23:14;10.60;99.90
35970;DHT22;22448;51.298;6.430;2024-02-04T11:25:49;10.70;99.90
35970;DHT22;22448;51.298;6.430;2024-02-04T11:28:19;10.70;99.90
35970;DHT22;22448;51.298;6.430;2024-02-04T11:30:48;10.80;99.90
35970;DHT22;22448;51.298;6.430;2024-02-04T11:33:21;10.80;99.90
35970;DHT22;22448;51.298;6.430;2024-02-04T11:36:18;10.90;99.90
35970;DHT22;22448;51.298;6.430;2024-02-04T11:38:48;10.90;99.90
35970;DHT22;22448;51.298;6.430;2024-02-04T11:41:22;10.90;99.90
35970;DHT22;22448;51.298;6.430;2024-02-04T11:43:55;10.90;99.90
35970;DHT22;22448;51.298;6.430;2024-02-04T11:46:31;11.00;99.90
35970;DHT22;22448;51.298;6.430;2024-02-04T11:49:01;11.10;99.90
35970;DHT22;22448;51.298;6.430;2024-02-04T11:51:29;11.10;99.90
35970;DHT22;22448;51.298;6.430;2024-02-04T11:53:57;11.00;99.90
35970;DHT22;22448;51.298;6.430;2024-02-04T11:56:25;11.00;99.90
35970;DHT22;22448;51.298;6.430;2024-02-04T11:58:52;10.90;99.90
35970;DHT22;22448;51.298;6.430;2024-02-04T12:01:22;10.90;99.90
35970;DHT22;22448;51.298;6.430;2024-02-04T12:03:51;10.90;99.90
35970;DHT22;22448;51.298;6.430;2024-02-04T12:06:19;10.80;99.90
35970;DHT22;22448;51.298;6.430;2024-02-04T12:08:46;10.80;99.90
35970;DHT22;22448;51.298;6.430;2024-02-04T12:11:14;10.80;99.90
35970;DHT22;22448;51.298;6.430;2024-02-04T12:13:43;10.70;99.90
35970;DHT22;22448;51.298;6.430;2024-02-04T12:16:10;10.70;99.90
35970;DHT22;22448;51.298;6.430;2024-02-04T12:18:48;10.70;99.90
35970;DHT22;22448;51.298;6.430;2024-02-04T12:21:15;10.70;99.90
35970;DHT22;22448;51.298;6.430;2024-02-04T12:23:42;10.70;99.90
35970;DHT22;22448;51.298;6.430;2024-02-04T12:26:09;10.70;99.90
35970;DHT22;22448;51.298;6.430;2024-02-04T12:28:36;10.70;99.90
35970;DHT22;22448;51.298;6.430;2024-02-04T12:31:04;10.70;99.90
35970;DHT22;22448;51.298;6.430;2024-02-04T12:33:31;10.70;99.90
35970;DHT22;22448;51.298;6.430;2024-02-04T12:35:58;10.80;99.90
35970;DHT22;22448;51.298;6.430;2024-02-04T12:38:27;10.80;99.90
35970;DHT22;22448;51.298;6.430;2024-02-04T12:41:01;10.80;99.90
35970;DHT22;22448;51.298;6.430;2024-02-04T12:43:29;10.80;99.90
35970;DHT22;22448;51.298;6.430;2024-02-04T12:45:56;10.90;99.90
35970;DHT22;22448;51.298;6.430;2024-02-04T12:48:27;10.80;99.90
35970;DHT22;22448;51.298;6.430;2024-02-04T12:50:54;10.70;99.90
35970;DHT22;22448;51.298;6.430;2024-02-04T12:53:21;10.80;99.90
35970;DHT22;22448;51.298;6.430;2024-02-04T12:55:48;10.70;99.90
35970;DHT22;22448;51.298;6.430;2024-02-04T12:58:24;10.70;99.90
35970;DHT22;22448;51.298;6.430;2024-02-04T13:01:00;10.70;99.90
35970;DHT22;22448;51.298;6.430;2024-02-04T13:03:28;10.60;99.90
35970;DHT22;22448;51.298;6.430;2024-02-04T13:05:58;10.60;99.90
35970;DHT22;22448;51.298;6.430;2024-02-04T13:08:26;10.60;99.90
35970;DHT22;22448;51.298;6.430;2024-02-04T13:10:57;10.60;99.90
35970;DHT22;22448;51.298;6.430;2024-02-04T13:13:24;10.60;99.90
35970;DHT22;22448;51.298;6.430;2024-02-04T13:15:55;10.60;99.90
35970;DHT22;22448;51.298;6.430;2024-02-04T13:18:23;10.60;99.90
35970;DHT22;22448;51.298;6.430;2024-02-04T13:20:50;10.70;99.90
35970;DHT22;22448;51.298;6.430;2024-02-04T13:23:17;10.70;99.90
35970;DHT22;22448;51.298;6.430;2024-02-04T13:25:44;10.60;99.90
35970;DHT22;22448;51.298;6.430;2024-02-04T13:28:12;10.60;99.90
35970;DHT22;22448;51.298;6.430;2024-02-04T13:30:40;10.60;99.90
35970;DHT22;22448;51.298;6.430;2024-02-04T13:33:07;10.60;99.90
35970;DHT22;22448;51.298;6.430;2024-02-04T13:35:35;10.50;99.90
35970;DHT22;22448;51.298;6.430;2024-02-04T13:38:03;10.50;99.90
35970;DHT22;22448;51.298;6.430;2024-02-04T13:40:30;10.60;99.90
35970;DHT22;22448;51.298;6.430;2024-02-04T13:42:57;10.60;99.90
35970;DHT22;22448;51.298;6.430;2024-02-04T13:45:25;10.70;99.90
35970;DHT22;22448;51.298;6.430;2024-02-04T13:47:52;10.60;99.90
35970;DHT22;22448;51.298;6.430;2024-02-04T13:50:19;10.70;99.90
35970;DHT22;22448;51.298;6.430;2024-02-04T13:52:46;10.60;99.90
35970;DHT22;22448;51.298;6.430;2024-02-04T13:55:13;10.60;99.90
35970;DHT22;22448;51.298;6.430;2024-02-04T13:57:40;10.60;99.90
35970;DHT22;22448;51.298;6.430;2024-02-04T14:00:08;10.60;99.90
35970;DHT22;22448;51.298;6.430;2024-02-04T14:02:36;10.60;99.90
35970;DHT22;22448;51.298;6.430;2024-02-04T14:05:06;10.60;99.90
35970;DHT22;22448;51.298;6.430;2024-02-04T14:07:33;10.60;99.90
35970;DHT22;22448;51.298;6.430;2024-02-04T14:10:00;10.60;99.90
35970;DHT22;22448;51.298;6.430;2024-02-04T14:12:27;10.70;99.90
35970;DHT22;22448;51.298;6.430;2024-02-04T14:14:56;10.80;99.90
35970;DHT22;22448;51.298;6.430;2024-02-04T14:17:23;10.80;99.90
35970;DHT22;22448;51.298;6.430;2024-02-04T14:19:50;10.80;99.90
35970;DHT22;22448;51.298;6.430;2024-02-04T14:22:19;10.90;99.90
35970;DHT22;22448;51.298;6.430;2024-02-04T14:24:46;10.90;99.90
35970;DHT22;22448;51.298;6.430;2024-02-04T14:27:14;10.90;99.90
35970;DHT22;22448;51.298;6.430;2024-02-04T14:29:40;10.90;99.90
35970;DHT22;22448;51.298;6.430;2024-02-04T14:32:08;10.90;99.90
35970;DHT22;22448;51.298;6.430;2024-02-04T14:34:35;10.90;99.90
35970;DHT22;22448;51.298;6.430;2024-02-04T14:37:02;10.90;99.90
35970;DHT22;22448;51.298;6.430;2024-02-04T14:39:30;11.00;99.90
35970;DHT22;22448;51.298;6.430;2024-02-04T14:41:58;11.10;99.90
35970;DHT22;22448;51.298;6.430;2024-02-04T14:44:26;11.10;99.90
35970;DHT22;22448;51.298;6.430;2024-02-04T14:46:53;11.10;99.90
35970;DHT22;22448;51.298;6.430;2024-02-04T14:49:20;11.10;99.90
35970;DHT22;22448;51.298;6.430;2024-02-04T14:51:47;11.00;99.90
35970;DHT22;22448;51.298;6.430;2024-02-04T14:54:14;11.00;99.90
35970;DHT22;22448;51.298;6.430;2024-02-04T14:56:42;11.00;99.90
35970;DHT22;22448;51.298;6.430;2024-02-04T14:59:10;10.90;99.90
35970;DHT22;22448;51.298;6.430;2024-02-04T15:01:49;10.90;99.90
35970;DHT22;22448;51.298;6.430;2024-02-04T15:04:17;10.90;99.90
35970;DHT22;22448;51.298;6.430;2024-02-04T15:06:45;10.80;99.90
35970;DHT22;22448;51.298;6.430;2024-02-04T15:09:12;10.80;99.90
35970;DHT22;22448;51.298;6.430;2024-02-04T15:11:41;10.80;99.90
35970;DHT22;22448;51.298;6.430;2024-02-04T15:14:09;10.80;99.90
35970;DHT22;22448;51.298;6.430;2024-02-04T15:16:37;10.80;99.90
35970;DHT22;22448;51.298;6.430;2024-02-04T15:19:07;10.70;99.90
35970;DHT22;22448;51.298;6.430;2024-02-04T15:21:35;10.80;99.90
35970;DHT22;22448;51.298;6.430;2024-02-04T15:24:03;10.70;99.90
35970;DHT22;22448;51.298;6.430;2024-02-04T15:26:34;10.70;99.90
35970;DHT22;22448;51.298;6.430;2024-02-04T15:29:03;10.70;99.90
35970;DHT22;22448;51.298;6.430;2024-02-04T15:31:31;10.70;99.90
35970;DHT22;22448;51.298;6.430;2024-02-04T15:34:01;10.70;99.90
35970;DHT22;22448;51.298;6.430;2024-02-04T15:36:31;10.70;99.90
35970;DHT22;22448;51.298;6.430;2024-02-04T15:39:00;10.70;99.90
35970;DHT22;22448;51.298;6.430;2024-02-04T15:41:29;10.70;99.90
35970;DHT22;22448;51.298;6.430;2024-02-04T15:43:56;10.70;99.90
35970;DHT22;22448;51.298;6.430;2024-02-04T15:46:23;10.70;99.90
35970;DHT22;22448;51.298;6.430;2024-02-04T15:48:52;10.60;99.90
35970;DHT22;22448;51.298;6.430;2024-02-04T15:51:23;10.60;99.90
35970;DHT22;22448;51.298;6.430;2024-02-04T15:53:50;10.60;99.90
35970;DHT22;22448;51.298;6.430;2024-02-04T15:56:19;10.50;99.90
35970;DHT22;22448;51.298;6.430;2024-02-04T15:58:55;10.60;99.90